Wetterdaten: Woche 18.09.23 - 24.09.23 (KW38)
Datum Zeit Temp. Aussen Temp. o. S. Temp +5cm Feuchte Auss Luftdruck Regen Sonnenschein Regendauer Solar Windben Empfang
18.09.2023 00:00 19,4 C 18,2 C 15,0 C 96 % 1008,9 hPa 0,0 l/m 0,00 h 0,00 h 0 W/m 0,0 km/h (0 Bft) 97,47 %
18.09.2023 01:00 19,1 C 17,9 C 14,7 C 97 % 1007,7 hPa 0,0 l/m 0,00 h 0,00 h 0 W/m 0,0 km/h (0 Bft) 96,72 %
18.09.2023 02:00 18,9 C 18,2 C 15,0 C 97 % 1006,8 hPa 0,0 l/m 0,00 h 0,00 h 0 W/m 0,1 km/h (0 Bft) 96,38 %
18.09.2023 03:00 19,0 C 18,8 C 15,4 C 97 % 1006,1 hPa 0,0 l/m 0,00 h 0,00 h 0 W/m 2,0 km/h (1 Bft) 97,71 %
18.09.2023 04:00 19,2 C 18,9 C 15,6 C 97 % 1005,3 hPa 0,0 l/m 0,00 h 0,00 h 0 W/m 3,2 km/h (1 Bft) 98,72 %
18.09.2023 05:00 19,7 C 19,0 C 15,3 C 94 % 1004,3 hPa 0,8 l/m 0,00 h 0,20 h 0 W/m 9,0 km/h (2 Bft) 95,38 %
18.09.2023 06:00 19,4 C 18,3 C 14,4 C 95 % 1004,2 hPa 0,2 l/m 0,00 h 0,25 h 0 W/m 6,9 km/h (2 Bft) 99,61 %
18.09.2023 07:00 19,1 C 18,3 C 14,4 C 95 % 1004,3 hPa 0,0 l/m 0,00 h 0,00 h 9 W/m 3,4 km/h (1 Bft) 96,73 %
18.09.2023 08:00 19,1 C 18,5 C 14,4 C 96 % 1004,7 hPa 0,0 l/m 0,00 h 0,00 h 49 W/m 4,5 km/h (1 Bft) 96,50 %
18.09.2023 09:00 19,7 C 19,4 C 14,4 C 93 % 1005,2 hPa 0,0 l/m 0,00 h 0,00 h 99 W/m 14,6 km/h (3 Bft) 98,13 %
18.09.2023 10:00 20,4 C 20,2 C 14,2 C 87 % 1005,6 hPa 0,0 l/m 0,03 h 0,00 h 173 W/m 18,9 km/h (3 Bft) 97,43 %
18.09.2023 11:00 20,9 C 21,0 C 16,5 C 84 % 1005,8 hPa 0,0 l/m 0,17 h 0,00 h 241 W/m 23,9 km/h (4 Bft) 96,18 %
18.09.2023 12:00 22,8 C 23,0 C 18,8 C 78 % 1005,8 hPa 0,0 l/m 0,27 h 0,00 h 147 W/m 24,5 km/h (4 Bft) 99,69 %
18.09.2023 13:00 23,6 C 23,3 C 19,0 C 74 % 1005,9 hPa 0,0 l/m 0,13 h 0,00 h 224 W/m 23,4 km/h (4 Bft) 96,02 %
18.09.2023 14:00 24,5 C 25,0 C 19,5 C 69 % 1005,6 hPa 0,0 l/m 0,77 h 0,00 h 588 W/m 28,3 km/h (4 Bft) 87,90 %
18.09.2023 15:00 24,9 C 24,3 C 19,9 C 64 % 1005,3 hPa 0,0 l/m 0,90 h 0,00 h 564 W/m 32,1 km/h (5 Bft) 96,73 %
18.09.2023 16:00 24,9 C 24,1 C 20,0 C 64 % 1004,7 hPa 0,0 l/m 1,00 h 0,00 h 484 W/m 29,4 km/h (5 Bft) 98,80 %
18.09.2023 17:00 24,9 C 25,4 C 19,8 C 61 % 1004,4 hPa 0,0 l/m 1,00 h 0,00 h 321 W/m 27,0 km/h (4 Bft) 96,70 %
18.09.2023 18:00 24,2 C 23,4 C 19,2 C 63 % 1004,4 hPa 0,0 l/m 0,40 h 0,00 h 74 W/m 22,4 km/h (4 Bft) 97,13 %
18.09.2023 19:00 20,5 C 18,1 C 14,5 C 80 % 1005,1 hPa 7,8 l/m 0,00 h 0,73 h 5 W/m 21,1 km/h (4 Bft) 98,15 %
18.09.2023 20:00 17,2 C 15,6 C 12,5 C 94 % 1005,8 hPa 0,4 l/m 0,00 h 0,37 h 0 W/m 18,8 km/h (3 Bft) 96,87 %
18.09.2023 21:00 17,0 C 15,8 C 12,2 C 96 % 1006,2 hPa 0,0 l/m 0,00 h 0,00 h 0 W/m 15,9 km/h (3 Bft) 96,43 %
18.09.2023 22:00 17,1 C 16,1 C 12,2 C 95 % 1006,6 hPa 0,0 l/m 0,00 h 0,00 h 0 W/m 18,6 km/h (3 Bft) 97,87 %
18.09.2023 23:00 17,0 C 16,1 C 11,8 C 94 % 1007,3 hPa 0,0 l/m 0,00 h 0,00 h 0 W/m 15,6 km/h (3 Bft) 97,37 %
19.09.2023 00:00 16,6 C 15,7 C 11,6 C 92 % 1008,1 hPa 0,0 l/m 0,00 h 0,00 h 0 W/m 13,9 km/h (3 Bft) 92,63 %
19.09.2023 01:00 16,0 C 15,2 C 11,6 C 89 % 1008,8 hPa 0,0 l/m 0,00 h 0,00 h 0 W/m 14,8 km/h (3 Bft) 98,59 %
19.09.2023 02:00 15,5 C 14,6 C 11,7 C 89 % 1009,3 hPa 0,0 l/m 0,00 h 0,00 h 0 W/m 15,5 km/h (3 Bft) 97,56 %
19.09.2023 03:00 15,2 C 14,4 C 11,1 C 89 % 1009,8 hPa 0,0 l/m 0,00 h 0,00 h 0 W/m 14,2 km/h (3 Bft) 97,45 %
19.09.2023 04:00 14,9 C 14,2 C 11,1 C 88 % 1010,2 hPa 0,0 l/m 0,00 h 0,00 h 0 W/m 15,0 km/h (3 Bft) 96,38 %
19.09.2023 05:00 14,7 C 13,9 C 10,8 C 87 % 1010,4 hPa 0,0 l/m 0,00 h 0,00 h 0 W/m 13,3 km/h (3 Bft) 99,07 %
19.09.2023 06:00 14,5 C 13,9 C 10,6 C 88 % 1010,5 hPa 0,0 l/m 0,00 h 0,00 h 0 W/m 18,5 km/h (3 Bft) 95,78 %
19.09.2023 07:00 14,5 C 13,9 C 10,7 C 87 % 1011,2 hPa 0,0 l/m 0,00 h 0,00 h 12 W/m 13,9 km/h (3 Bft) 97,38 %
19.09.2023 08:00 14,8 C 14,4 C 11,1 C 87 % 1011,5 hPa 0,0 l/m 0,00 h 0,00 h 62 W/m 18,5 km/h (3 Bft) 98,90 %
19.09.2023 09:00 15,4 C 15,1 C 11,6 C 86 % 1011,8 hPa 0,0 l/m 0,00 h 0,00 h 132 W/m 20,0 km/h (4 Bft) 96,55 %
19.09.2023 10:00 16,3 C 16,4 C 12,5 C 83 % 1012,1 hPa 0,0 l/m 0,00 h 0,00 h 192 W/m 22,8 km/h (4 Bft) 96,94 %
19.09.2023 11:00 17,2 C 17,5 C 13,6 C 80 % 1012,2 hPa 0,0 l/m 0,03 h 0,00 h 228 W/m 23,4 km/h (4 Bft) 96,38 %
19.09.2023 12:00 18,4 C 18,8 C 14,6 C 75 % 1012,0 hPa 0,0 l/m 0,27 h 0,00 h 226 W/m 27,8 km/h (4 Bft) 98,22 %
19.09.2023 13:00 19,0 C 18,9 C 14,9 C 70 % 1011,9 hPa 0,0 l/m 0,07 h 0,00 h 215 W/m 33,2 km/h (5 Bft) 96,84 %
19.09.2023 14:00 20,1 C 21,0 C 15,4 C 66 % 1011,4 hPa 0,0 l/m 0,97 h 0,00 h 672 W/m 35,1 km/h (5 Bft) 97,16 %
19.09.2023 15:00 20,1 C 19,6 C 15,8 C 67 % 1011,3 hPa 0,0 l/m 0,40 h 0,00 h 256 W/m 33,7 km/h (5 Bft) 99,33 %
19.09.2023 16:00 19,8 C 19,3 C 15,6 C 69 % 1011,4 hPa 0,0 l/m 0,00 h 0,00 h 142 W/m 26,9 km/h (4 Bft) 95,92 %
19.09.2023 17:00 19,7 C 19,4 C 15,6 C 69 % 1011,1 hPa 0,0 l/m 0,07 h 0,00 h 120 W/m 28,5 km/h (4 Bft) 98,08 %
19.09.2023 18:00 19,8 C 19,4 C 15,5 C 70 % 1010,9 hPa 0,0 l/m 0,62 h 0,00 h 103 W/m 29,6 km/h (5 Bft) 98,81 %
19.09.2023 19:00 19,2 C 18,3 C 14,6 C 71 % 1011,0 hPa 0,0 l/m 0,00 h 0,00 h 9 W/m 26,9 km/h (4 Bft) 96,67 %
19.09.2023 20:00 18,8 C 17,9 C 14,4 C 72 % 1011,1 hPa 0,0 l/m 0,00 h 0,00 h 0 W/m 25,2 km/h (4 Bft) 96,99 %
19.09.2023 21:00 18,6 C 17,8 C 14,0 C 73 % 1011,1 hPa 0,0 l/m 0,00 h 0,00 h 0 W/m 25,5 km/h (4 Bft) 98,45 %
19.09.2023 22:00 18,4 C 17,5 C 13,9 C 74 % 1011,1 hPa 0,0 l/m 0,00 h 0,00 h 0 W/m 20,2 km/h (4 Bft) 95,03 %
19.09.2023 23:00 18,1 C 17,1 C 13,6 C 76 % 1010,9 hPa 0,0 l/m 0,00 h 0,00 h 0 W/m 19,2 km/h (3 Bft) 98,53 %
20.09.2023 00:00 17,8 C 16,7 C 13,3 C 79 % 1010,8 hPa 0,0 l/m 0,00 h 0,00 h 0 W/m 11,3 km/h (2 Bft) 96,10 %
20.09.2023 01:00 17,8 C 17,0 C 13,3 C 79 % 1010,8 hPa 0,0 l/m 0,00 h 0,00 h 0 W/m 14,0 km/h (3 Bft) 95,87 %
20.09.2023 02:00 17,7 C 16,7 C 13,2 C 81 % 1010,7 hPa 0,0 l/m 0,00 h 0,00 h 0 W/m 13,2 km/h (3 Bft) 98,44 %
20.09.2023 03:00 17,4 C 16,7 C 12,8 C 83 % 1010,6 hPa 0,0 l/m 0,00 h 0,00 h 0 W/m 14,8 km/h (3 Bft) 97,67 %
20.09.2023 04:00 17,3 C 16,2 C 12,8 C 84 % 1010,3 hPa 0,0 l/m 0,00 h 0,00 h 0 W/m 7,7 km/h (2 Bft) 96,64 %
20.09.2023 05:00 16,6 C 15,6 C 12,2 C 86 % 1009,9 hPa 0,0 l/m 0,00 h 0,00 h 0 W/m 8,1 km/h (2 Bft) 98,35 %
20.09.2023 06:00 16,3 C 15,6 C 12,2 C 88 % 1009,4 hPa 0,0 l/m 0,00 h 0,00 h 0 W/m 5,4 km/h (1 Bft) 97,87 %
20.09.2023 07:00 16,1 C 15,1 C 11,8 C 89 % 1009,2 hPa 0,0 l/m 0,00 h 0,00 h 12 W/m 6,2 km/h (2 Bft) 96,32 %
20.09.2023 08:00 15,5 C 14,6 C 11,3 C 91 % 1009,1 hPa 0,0 l/m 0,00 h 0,00 h 30 W/m 9,7 km/h (2 Bft) 99,56 %
20.09.2023 09:00 16,1 C 16,0 C 12,3 C 91 % 1009,1 hPa 0,0 l/m 0,00 h 0,00 h 55 W/m 12,6 km/h (3 Bft) 95,74 %
20.09.2023 10:00 17,4 C 17,5 C 13,5 C 88 % 1009,2 hPa 0,0 l/m 0,13 h 0,00 h 180 W/m 15,2 km/h (3 Bft) 98,32 %
20.09.2023 11:00 19,7 C 20,6 C 16,0 C 82 % 1009,3 hPa 0,0 l/m 0,07 h 0,00 h 244 W/m 15,1 km/h (3 Bft) 96,42 %
20.09.2023 12:00 21,4 C 21,7 C 17,3 C 75 % 1009,0 hPa 0,0 l/m 0,10 h 0,00 h 229 W/m 21,8 km/h (4 Bft) 97,52 %
20.09.2023 13:00 22,0 C 22,1 C 17,7 C 71 % 1008,5 hPa 0,0 l/m 0,27 h 0,00 h 297 W/m 28,1 km/h (4 Bft) 96,34 %
20.09.2023 14:00 22,4 C 22,5 C 17,9 C 68 % 1007,8 hPa 0,0 l/m 0,67 h 0,00 h 342 W/m 28,3 km/h (4 Bft) 98,43 %
20.09.2023 15:00 23,4 C 23,2 C 18,5 C 66 % 1007,1 hPa 0,0 l/m 1,00 h 0,00 h 510 W/m 25,4 km/h (4 Bft) 97,39 %
20.09.2023 16:00 24,0 C 23,4 C 18,9 C 64 % 1006,4 hPa 0,0 l/m 1,00 h 0,00 h 469 W/m 23,0 km/h (4 Bft) 97,74 %
20.09.2023 17:00 24,1 C 25,1 C 18,4 C 65 % 1005,7 hPa 0,0 l/m 1,00 h 0,00 h 274 W/m 17,0 km/h (3 Bft) 95,76 %
20.09.2023 18:00 23,3 C 22,4 C 17,9 C 67 % 1005,3 hPa 0,0 l/m 0,10 h 0,00 h 54 W/m 12,1 km/h (2 Bft) 99,73 %
20.09.2023 19:00 22,1 C 20,8 C 16,6 C 69 % 1004,9 hPa 0,0 l/m 0,13 h 0,00 h 19 W/m 5,3 km/h (1 Bft) 95,90 %
20.09.2023 20:00 20,8 C 19,2 C 15,3 C 73 % 1004,8 hPa 0,0 l/m 0,00 h 0,00 h 0 W/m 3,9 km/h (1 Bft) 98,66 %
20.09.2023 21:00 19,7 C 18,5 C 15,0 C 76 % 1004,9 hPa 0,0 l/m 0,00 h 0,00 h 0 W/m 6,0 km/h (2 Bft) 98,15 %
20.09.2023 22:00 19,1 C 18,0 C 14,6 C 77 % 1004,4 hPa 0,0 l/m 0,00 h 0,00 h 0 W/m 5,9 km/h (2 Bft) 96,34 %
20.09.2023 23:00 18,5 C 17,7 C 13,9 C 79 % 1003,8 hPa 0,0 l/m 0,00 h 0,00 h 0 W/m 10,5 km/h (2 Bft) 97,95 %
21.09.2023 00:00 18,3 C 17,2 C 13,9 C 81 % 1003,2 hPa 0,0 l/m 0,00 h 0,00 h 0 W/m 11,8 km/h (2 Bft) 98,55 %
21.09.2023 01:00 17,9 C 16,9 C 13,4 C 82 % 1002,7 hPa 0,0 l/m 0,00 h 0,00 h 0 W/m 11,0 km/h (2 Bft) 95,30 %
21.09.2023 02:00 17,7 C 16,7 C 13,3 C 82 % 1002,1 hPa 0,0 l/m 0,00 h 0,00 h 0 W/m 12,8 km/h (3 Bft) 98,65 %
21.09.2023 03:00 17,6 C 16,6 C 13,1 C 82 % 1001,4 hPa 0,0 l/m 0,00 h 0,00 h 0 W/m 10,4 km/h (2 Bft) 97,53 %
21.09.2023 04:00 17,0 C 16,1 C 12,8 C 84 % 1000,7 hPa 0,0 l/m 0,00 h 0,00 h 0 W/m 9,7 km/h (2 Bft) 96,57 %
21.09.2023 05:00 16,9 C 16,1 C 12,8 C 84 % 1000,0 hPa 0,0 l/m 0,00 h 0,00 h 0 W/m 8,9 km/h (2 Bft) 98,67 %
21.09.2023 06:00 17,3 C 16,6 C 12,8 C 83 % 999,5 hPa 0,0 l/m 0,00 h 0,00 h 0 W/m 11,1 km/h (2 Bft) 96,32 %
21.09.2023 07:00 17,5 C 16,7 C 12,9 C 82 % 999,5 hPa 0,0 l/m 0,43 h 0,00 h 24 W/m 12,2 km/h (2 Bft) 96,94 %
21.09.2023 08:00 18,2 C 17,9 C 13,9 C 82 % 999,4 hPa 0,0 l/m 0,67 h 0,00 h 93 W/m 15,8 km/h (3 Bft) 98,07 %
21.09.2023 09:00 19,8 C 19,6 C 15,5 C 79 % 999,3 hPa 0,0 l/m 0,73 h 0,00 h 174 W/m 18,2 km/h (3 Bft) 97,18 %
21.09.2023 10:00 21,6 C 21,8 C 17,1 C 76 % 999,4 hPa 0,0 l/m 1,00 h 0,00 h 259 W/m 17,5 km/h (3 Bft) 96,78 %
21.09.2023 11:00 21,8 C 21,4 C 17,3 C 76 % 999,8 hPa 0,0 l/m 0,07 h 0,00 h 192 W/m 16,4 km/h (3 Bft) 99,48 %
21.09.2023 12:00 21,8 C 21,7 C 17,4 C 77 % 999,5 hPa 0,0 l/m 0,00 h 0,00 h 233 W/m 13,8 km/h (3 Bft) 95,13 %
21.09.2023 13:00 21,7 C 20,9 C 17,0 C 77 % 998,8 hPa 0,0 l/m 0,00 h 0,00 h 107 W/m 14,2 km/h (3 Bft) 98,13 %
21.09.2023 14:00 20,9 C 20,0 C 15,9 C 82 % 998,2 hPa 0,0 l/m 0,00 h 0,17 h 64 W/m 8,7 km/h (2 Bft) 98,01 %
21.09.2023 15:00 20,4 C 18,9 C 14,3 C 88 % 997,7 hPa 2,2 l/m 0,00 h 0,77 h 38 W/m 4,9 km/h (1 Bft) 96,14 %
21.09.2023 16:00 18,2 C 16,6 C 13,1 C 94 % 997,4 hPa 13,2 l/m 0,00 h 1,00 h 23 W/m 8,3 km/h (2 Bft) 97,71 %
21.09.2023 17:00 17,5 C 16,4 C 12,8 C 97 % 996,7 hPa 0,2 l/m 0,00 h 0,23 h 52 W/m 2,7 km/h (1 Bft) 98,92 %
21.09.2023 18:00 17,3 C 16,1 C 12,8 C 97 % 996,1 hPa 0,0 l/m 0,00 h 0,00 h 21 W/m 3,9 km/h (1 Bft) 95,23 %
21.09.2023 19:00 17,0 C 16,0 C 12,4 C 97 % 997,0 hPa 0,0 l/m 0,00 h 0,13 h 0 W/m 11,1 km/h (2 Bft) 99,32 %
21.09.2023 20:00 16,1 C 15,2 C 11,7 C 97 % 997,6 hPa 0,8 l/m 0,00 h 1,00 h 0 W/m 7,4 km/h (2 Bft) 97,72 %
21.09.2023 21:00 15,5 C 14,4 C 11,2 C 97 % 998,3 hPa 0,4 l/m 0,00 h 0,60 h 0 W/m 5,8 km/h (2 Bft) 95,90 %
21.09.2023 22:00 15,1 C 14,2 C 10,9 C 97 % 998,5 hPa 0,0 l/m 0,00 h 0,00 h 0 W/m 4,1 km/h (1 Bft) 98,50 %
21.09.2023 23:00 14,6 C 13,9 C 10,6 C 97 % 998,8 hPa 0,0 l/m 0,00 h 0,00 h 0 W/m 4,8 km/h (1 Bft) 98,11 %
22.09.2023 00:00 14,3 C 13,9 C 10,5 C 97 % 999,0 hPa 0,0 l/m 0,00 h 0,00 h 0 W/m 5,6 km/h (1 Bft) 95,51 %
22.09.2023 01:00 14,5 C 13,9 C 10,3 C 97 % 999,2 hPa 0,0 l/m 0,00 h 0,00 h 0 W/m 16,5 km/h (3 Bft) 98,21 %
22.09.2023 02:00 14,5 C 13,9 C 10,0 C 96 % 999,6 hPa 0,0 l/m 0,00 h 0,00 h 0 W/m 9,4 km/h (2 Bft) 97,60 %
22.09.2023 03:00 14,1 C 13,2 C 9,8 C 95 % 999,9 hPa 0,0 l/m 0,00 h 0,00 h 0 W/m 7,3 km/h (2 Bft) 96,59 %
22.09.2023 04:00 13,3 C 12,1 C 9,1 C 94 % 1000,2 hPa 0,0 l/m 0,00 h 0,00 h 0 W/m 2,6 km/h (1 Bft) 98,04 %
22.09.2023 05:00 12,8 C 12,1 C 9,2 C 95 % 1000,1 hPa 0,0 l/m 0,00 h 0,00 h 0 W/m 4,8 km/h (1 Bft) 97,62 %
22.09.2023 06:00 12,8 C 12,2 C 9,4 C 96 % 1000,4 hPa 0,0 l/m 0,00 h 0,00 h 0 W/m 3,3 km/h (1 Bft) 97,04 %
22.09.2023 07:00 12,7 C 12,0 C 9,3 C 96 % 1000,7 hPa 0,0 l/m 0,00 h 0,00 h 10 W/m 3,8 km/h (1 Bft) 96,89 %
22.09.2023 08:00 12,6 C 12,2 C 9,3 C 96 % 1001,0 hPa 0,0 l/m 0,00 h 0,00 h 26 W/m 8,7 km/h (2 Bft) 98,93 %
22.09.2023 09:00 13,9 C 13,9 C 10,6 C 92 % 1001,4 hPa 0,0 l/m 0,00 h 0,00 h 59 W/m 18,4 km/h (3 Bft) 96,43 %
22.09.2023 10:00 15,6 C 15,8 C 11,7 C 83 % 1002,1 hPa 0,0 l/m 0,13 h 0,00 h 160 W/m 21,4 km/h (4 Bft) 96,67 %
22.09.2023 11:00 16,3 C 17,0 C 12,3 C 79 % 1002,0 hPa 0,0 l/m 0,07 h 0,00 h 181 W/m 21,8 km/h (4 Bft) 99,04 %
22.09.2023 12:00 16,6 C 16,9 C 13,0 C 74 % 1002,4 hPa 0,0 l/m 0,10 h 0,00 h 231 W/m 27,8 km/h (4 Bft) 96,72 %
22.09.2023 13:00 17,4 C 17,6 C 13,5 C 72 % 1002,8 hPa 0,0 l/m 0,23 h 0,00 h 315 W/m 18,9 km/h (3 Bft) 97,08 %
22.09.2023 14:00 18,9 C 19,6 C 14,3 C 66 % 1002,8 hPa 0,0 l/m 0,73 h 0,00 h 578 W/m 19,1 km/h (3 Bft) 97,65 %
22.09.2023 15:00 18,8 C 18,5 C 14,1 C 65 % 1002,6 hPa 0,0 l/m 0,33 h 0,00 h 329 W/m 15,9 km/h (3 Bft) 97,86 %
22.09.2023 16:00 18,7 C 18,3 C 14,0 C 67 % 1002,4 hPa 0,0 l/m 0,10 h 0,00 h 129 W/m 4,8 km/h (1 Bft) 95,97 %
22.09.2023 17:00 16,0 C 14,0 C 10,4 C 82 % 1003,4 hPa 7,8 l/m 0,00 h 0,77 h 13 W/m 10,2 km/h (2 Bft) 96,26 %
22.09.2023 18:00 13,6 C 12,8 C 9,2 C 95 % 1003,4 hPa 0,6 l/m 0,63 h 0,23 h 81 W/m 2,3 km/h (1 Bft) 99,35 %
22.09.2023 19:00 13,6 C 12,4 C 9,0 C 95 % 1003,7 hPa 0,0 l/m 0,00 h 0,00 h 11 W/m 2,2 km/h (1 Bft) 95,40 %
22.09.2023 20:00 13,6 C 12,6 C 9,3 C 96 % 1004,1 hPa 0,0 l/m 0,00 h 0,00 h 0 W/m 0,9 km/h (0 Bft) 97,21 %
22.09.2023 21:00 13,3 C 12,4 C 9,0 C 97 % 1004,7 hPa 0,0 l/m 0,00 h 0,23 h 0 W/m 5,7 km/h (1 Bft) 97,03 %
22.09.2023 22:00 12,6 C 12,0 C 8,2 C 96 % 1005,5 hPa 0,0 l/m 0,00 h 0,03 h 0 W/m 9,0 km/h (2 Bft) 96,96 %
22.09.2023 23:00 12,4 C 11,7 C 8,1 C 96 % 1006,5 hPa 0,0 l/m 0,00 h 0,00 h 0 W/m 7,8 km/h (2 Bft) 97,38 %
23.09.2023 00:00 12,4 C 11,7 C 8,1 C 96 % 1007,3 hPa 0,0 l/m 0,00 h 0,03 h 0 W/m 6,5 km/h (2 Bft) 96,39 %
23.09.2023 01:00 12,1 C 11,3 C 7,9 C 97 % 1008,0 hPa 0,4 l/m 0,00 h 0,33 h 0 W/m 13,2 km/h (3 Bft) 99,27 %
23.09.2023 02:00 11,5 C 10,7 C 7,3 C 96 % 1008,5 hPa 0,0 l/m 0,00 h 0,00 h 0 W/m 8,8 km/h (2 Bft) 95,45 %
23.09.2023 03:00 11,2 C 10,5 C 7,2 C 96 % 1009,1 hPa 0,0 l/m 0,00 h 0,00 h 0 W/m 6,4 km/h (2 Bft) 98,00 %
23.09.2023 04:00 11,1 C 10,5 C 7,2 C 97 % 1009,7 hPa 0,0 l/m 0,00 h 0,00 h 0 W/m 12,2 km/h (2 Bft) 98,62 %
23.09.2023 05:00 11,1 C 10,6 C 7,0 C 97 % 1010,1 hPa 0,0 l/m 0,00 h 0,00 h 0 W/m 14,9 km/h (3 Bft) 96,19 %
23.09.2023 06:00 11,0 C 10,3 C 7,1 C 96 % 1010,4 hPa 0,0 l/m 0,00 h 0,00 h 0 W/m 11,0 km/h (2 Bft) 98,58 %
23.09.2023 07:00 10,9 C 10,2 C 7,2 C 96 % 1011,3 hPa 0,0 l/m 0,00 h 0,00 h 10 W/m 15,4 km/h (3 Bft) 96,70 %
23.09.2023 08:00 11,1 C 10,8 C 7,6 C 96 % 1012,4 hPa 0,0 l/m 0,00 h 0,00 h 26 W/m 16,4 km/h (3 Bft) 96,61 %
23.09.2023 09:00 12,0 C 11,9 C 8,5 C 95 % 1013,5 hPa 0,0 l/m 0,03 h 0,00 h 67 W/m 19,4 km/h (3 Bft) 96,35 %
23.09.2023 10:00 13,3 C 13,4 C 9,7 C 92 % 1014,3 hPa 0,0 l/m 0,10 h 0,00 h 122 W/m 14,6 km/h (3 Bft) 98,16 %
23.09.2023 11:00 14,7 C 16,5 C 12,0 C 87 % 1015,0 hPa 0,0 l/m 0,43 h 0,00 h 329 W/m 20,1 km/h (4 Bft) 97,15 %
23.09.2023 12:00 15,4 C 15,8 C 12,0 C 82 % 1015,5 hPa 0,0 l/m 0,13 h 0,00 h 230 W/m 18,0 km/h (3 Bft) 99,20 %
23.09.2023 13:00 16,1 C 16,3 C 12,3 C 79 % 1016,1 hPa 0,0 l/m 0,10 h 0,00 h 275 W/m 19,0 km/h (3 Bft) 95,88 %
23.09.2023 14:00 16,5 C 16,7 C 12,6 C 79 % 1016,7 hPa 0,0 l/m 0,58 h 0,00 h 362 W/m 16,1 km/h (3 Bft) 96,68 %
23.09.2023 15:00 17,5 C 17,3 C 13,2 C 75 % 1017,0 hPa 0,0 l/m 0,90 h 0,00 h 532 W/m 17,0 km/h (3 Bft) 97,80 %
23.09.2023 16:00 17,4 C 17,0 C 13,0 C 74 % 1017,4 hPa 0,0 l/m 0,23 h 0,00 h 202 W/m 14,1 km/h (3 Bft) 97,14 %
23.09.2023 17:00 16,3 C 15,5 C 11,9 C 79 % 1018,3 hPa 0,0 l/m 0,00 h 0,00 h 67 W/m 13,7 km/h (3 Bft) 97,74 %
23.09.2023 18:00 15,4 C 14,8 C 11,1 C 85 % 1019,0 hPa 0,0 l/m 0,30 h 0,00 h 55 W/m 9,2 km/h (2 Bft) 96,61 %
23.09.2023 19:00 15,2 C 14,4 C 11,0 C 86 % 1019,7 hPa 0,0 l/m 0,00 h 0,00 h 11 W/m 5,3 km/h (1 Bft) 96,02 %
23.09.2023 20:00 14,9 C 13,9 C 10,6 C 87 % 1020,5 hPa 0,0 l/m 0,00 h 0,00 h 0 W/m 3,8 km/h (1 Bft) 98,44 %
23.09.2023 21:00 14,6 C 13,5 C 9,7 C 89 % 1021,4 hPa 0,0 l/m 0,00 h 0,00 h 0 W/m 1,1 km/h (1 Bft) 97,38 %
23.09.2023 22:00 14,0 C 12,9 C 9,2 C 90 % 1022,1 hPa 0,0 l/m 0,00 h 0,00 h 0 W/m 0,7 km/h (0 Bft) 96,53 %
23.09.2023 23:00 13,3 C 12,0 C 8,4 C 92 % 1022,8 hPa 0,0 l/m 0,00 h 0,00 h 0 W/m 0,1 km/h (0 Bft) 98,55 %
24.09.2023 00:00 12,1 C 10,7 C 7,4 C 93 % 1023,2 hPa 0,0 l/m 0,00 h 0,00 h 0 W/m 0,6 km/h (0 Bft) 98,30 %
24.09.2023 01:00 11,9 C 10,8 C 7,6 C 95 % 1023,6 hPa 0,0 l/m 0,00 h 0,00 h 0 W/m 0,8 km/h (0 Bft) 96,61 %
24.09.2023 02:00 11,0 C 9,8 C 6,7 C 95 % 1024,0 hPa 0,0 l/m 0,00 h 0,00 h 0 W/m 0,0 km/h (0 Bft) 97,16 %
24.09.2023 03:00 10,5 C 9,4 C 6,7 C 95 % 1024,2 hPa 0,0 l/m 0,00 h 0,00 h 0 W/m 0,7 km/h (0 Bft) 98,90 %
24.09.2023 04:00 10,0 C 8,7 C 5,9 C 96 % 1024,4 hPa 0,0 l/m 0,00 h 0,00 h 0 W/m 0,0 km/h (0 Bft) 98,59 %
24.09.2023 05:00 9,4 C 8,3 C 5,6 C 96 % 1024,8 hPa 0,2 l/m 0,00 h 0,00 h 0 W/m 0,0 km/h (0 Bft) 95,15 %
24.09.2023 06:00 8,9 C 7,9 C 5,3 C 96 % 1025,3 hPa 0,0 l/m 0,00 h 0,00 h 0 W/m 0,7 km/h (0 Bft) 96,85 %
24.09.2023 07:00 8,9 C 8,3 C 5,6 C 97 % 1025,7 hPa 0,0 l/m 0,00 h 0,00 h 9 W/m 2,3 km/h (1 Bft) 97,06 %
24.09.2023 08:00 9,2 C 8,9 C 6,1 C 97 % 1026,3 hPa 0,0 l/m 0,00 h 0,00 h 26 W/m 4,1 km/h (1 Bft) 98,85 %
24.09.2023 09:00 10,8 C 11,2 C 7,7 C 98 % 1026,7 hPa 0,0 l/m 0,13 h 0,00 h 87 W/m 8,4 km/h (2 Bft) 95,10 %
24.09.2023 10:00 12,8 C 13,7 C 9,4 C 95 % 1026,9 hPa 0,0 l/m 0,10 h 0,00 h 117 W/m 8,3 km/h (2 Bft) 98,37 %
24.09.2023 11:00 15,4 C 20,8 C 13,3 C 85 % 1026,8 hPa 0,0 l/m 0,50 h 0,00 h 368 W/m 11,7 km/h (2 Bft) 98,11 %
24.09.2023 12:00 18,0 C 18,7 C 13,8 C 74 % 1026,1 hPa 0,0 l/m 0,23 h 0,00 h 146 W/m 14,1 km/h (3 Bft) 96,96 %
24.09.2023 13:00 18,9 C 18,4 C 13,8 C 69 % 1025,6 hPa 0,0 l/m 0,17 h 0,00 h 165 W/m 15,2 km/h (3 Bft) 97,95 %
24.09.2023 14:00 20,0 C 20,7 C 14,4 C 66 % 1025,4 hPa 0,0 l/m 1,00 h 0,00 h 666 W/m 14,1 km/h (3 Bft) 96,99 %
24.09.2023 15:00 21,0 C 20,1 C 15,2 C 60 % 1025,0 hPa 0,0 l/m 1,00 h 0,00 h 583 W/m 13,0 km/h (3 Bft) 96,66 %
24.09.2023 16:00 21,1 C 20,0 C 15,6 C 59 % 1024,4 hPa 0,0 l/m 1,00 h 0,00 h 454 W/m 12,1 km/h (2 Bft) 97,15 %
24.09.2023 17:00 21,1 C 21,7 C 15,1 C 61 % 1024,0 hPa 0,0 l/m 1,00 h 0,00 h 285 W/m 10,7 km/h (2 Bft) 98,01 %
24.09.2023 18:00 20,3 C 18,9 C 14,2 C 61 % 1023,8 hPa 0,0 l/m 0,60 h 0,00 h 76 W/m 9,0 km/h (2 Bft) 98,03 %
24.09.2023 19:00 18,2 C 16,0 C 12,0 C 70 % 1024,0 hPa 0,0 l/m 0,00 h 0,00 h 9 W/m 3,1 km/h (1 Bft) 96,34 %
24.09.2023 20:00 16,8 C 15,7 C 11,7 C 74 % 1024,1 hPa 0,0 l/m 0,00 h 0,00 h 0 W/m 5,0 km/h (1 Bft) 99,73 %
24.09.2023 21:00 16,2 C 15,1 C 11,3 C 74 % 1024,2 hPa 0,0 l/m 0,00 h 0,00 h 0 W/m 5,7 km/h (1 Bft) 96,20 %
24.09.2023 22:00 15,1 C 14,0 C 10,4 C 77 % 1024,0 hPa 0,0 l/m 0,00 h 0,00 h 0 W/m 2,7 km/h (1 Bft) 97,96 %
24.09.2023 23:00 14,3 C 13,2 C 9,7 C 80 % 1023,5 hPa 0,0 l/m 0,00 h 0,00 h 0 W/m 4,7 km/h (1 Bft) 95,61 %
Min-Datum _ 24.09.23 24.09.23 24.09.23 24.09.23 21.09.23 - - - - 18.09.23 19.09.23
_ Min-Zeit 06:40 05:56 06:20 15:52 18:36 - - - - 00:00 00:02
Minimum _ 8,8 C 7,8 C 5,0 C 57 % 995,9 hPa - - - - 0,0 km/h (0 Bft) 11,11 %
Max-Datum _ 18.09.23 18.09.23 18.09.23 21.09.23 24.09.23 21.09.23 23.09.23 18.09.23 22.09.23 19.09.23 18.09.23
_ Max-Zeit 15:24 17:32 14:04 18:52 10:32 16:28 14:10 06:06 14:08 14:56 00:09
Maximum _ 25,1 C 26,7 C 20,0 C 98 % 1027,0 hPa 13,2 l/m 0,08 h 0,08 h 835 W/m 64,4 km/h
S (8 Bft)
100,00 %
Durchschnitt _ 16,9 C 16,4 C 12,6 C 84 % 1009,4 hPa #35,0 l/m #25:20 h #7:05 h 186 W/m 12,7 km/h (3 Bft) 97,27 %
© 2023 W. Hausmann